Mount Carmel, Iowa
Current Conditions -  °F | °C
As of 6:15 AM on Thursday 18 Dec 2014 (Local Time) from KCIN Reporting Station
Overcast Overcast  
Wind Chill: 13°   Ceiling: 6000
Heat Index: 21°   Visibility: 10mi
Dew Point: 19°   Wind: 7mph
Humidity: 93%   Direction: 120°ESE
Pressure: 30.25"   Gusts: NA
Location:  42.08°N, 94.8598°W
Report Text: KCIN 181215Z AUTO 12006KT 10SM BKN060 OVC070 M06/M07 A3025 RMK AO2
Loading
Personal Weather Stations






























Interactive Weather Map New forecast layout! Learn more

10-Day Weather Forecast

Advertisements
Track Severe Weather on mobile